Detall de PIREP

Printer-friendly versionPDF version

[2014/10/14 08:22:00]
Flight IATA:CT3225
Pilot Number:042
Company ICAO:CAT
Aircraft Type:F100/A
PAX:26
Aircraft Registration:PFJ
Departing Airport: LJLJ
Destination Airport: LEPA
Alternate Airport:LEMH
Online: VATSIM
Route:RIFEN UM196 LAGEN UM859 VAMTU UM984 DIVKO UN852 VERSO UL129 LUNIK
Flight Level:F340
No Slew and time accel
No pause
Crash detect
Detect pilot in Cockpit between each 30 and 45 minutes
08:22 Zero fuel Weight: 81825 Lbs, Fuel Weight: 13240 Lbs
08:22 VATSIM:LJLJ 140800Z 00000KT 9999 FEW007 SCT070 18/16 Q1013 NOSIG
08:22 VATSIM:LEPA 140800Z 19010KT 160V220 9999 FEW020 BKN035 23/15 Q1008 NOSIG
08:25 Parking Brakes off
08:28 Take-off
08:28 Take off Weight: 94692 Lbs
08:28 Wind: 292º @ 000 Knots Heading: 306º
08:28 POS N46º 13´ 35´´ E014º 27´ 08´´
08:28 Gear Up: 171 Knots
08:28 Flaps:2 at 171 Knots
08:29 Flaps:1 at 201 Knots
08:29 Flaps:0 at 210 Knots
08:43 Wind:347º@007 Knots Heading: 232º Ground Speed: 358 Knots Altitude 30219 ft
08:48 TOC
08:48 Fuel Weight: 10474 Lb
08:58 Wind:212º@007 Knots Heading: 249º Ground Speed: 439 Knots Altitude 34009 ft
09:13 Wind:252º@005 Knots Heading: 248º Ground Speed: 445 Knots Altitude 33953 ft
09:28 Wind:020º@010 Knots Heading: 248º Ground Speed: 446 Knots Altitude 33930 ft
09:43 Wind:065º@014 Knots Heading: 207º Ground Speed: 460 Knots Altitude 33854 ft
09:51 TOD
09:51 Fuel Weight: 5857 Lb
09:58 Wind:333º@006 Knots Heading: 183º Ground Speed: 355 Knots Altitude 21574 ft
10:12 Flaps:1 at 178 Knots
10:13 Wind:244º@005 Knots Heading: 255º Ground Speed: 175 Knots Altitude 2998 ft
10:13 Flaps:2 at 171 Knots
10:13 Gear Down: 170 Knots
10:13 Flaps:3 at 170 Knots
10:17 TouchDown:Rate -243 ft/min Speed: 148 Knots
10:17 VATSIM:LEPA 141000Z 21007KT 170V240 9999 SCT025 23/16 Q1008 BECMG 3000 TSRA SCT030CB
10:17 Land
10:17 Wind:247º@004 Knots
10:17 Heading: 239º
10:17 Flight Duration: 01:49
10:17 Landing Weight: 86703 Lbs
10:17 POS N39º 32´ 57´´ E002º 44´ 54´´
10:18 Parking brakes on
10:18 Block to Block Duration: 01:53
10:18 Final Fuel: 4834 Lbls
10:18 Spent Fuel: 8406 Lbls
10:18 Flight Length: 709 NM
10:18 TOD Land Length: 119 NM

Exportar CSV

Powered by Drupal - Modified by Danger4k